createdAt,value
2017-09-12T00:00:34.284Z,64.20
2017-09-12T00:03:02.682Z,63.40
2017-09-12T00:05:32.585Z,64.20
2017-09-12T00:08:02.860Z,64.30
2017-09-12T00:10:31.596Z,64.30
2017-09-12T00:13:01.556Z,63.80
2017-09-12T00:15:30.182Z,63.80
2017-09-12T00:17:58.453Z,63.60
2017-09-12T00:20:26.860Z,63.40
2017-09-12T00:22:56.086Z,63.70
2017-09-12T00:25:24.491Z,63.70
2017-09-12T00:27:52.892Z,63.60
2017-09-12T00:30:21.299Z,63.60
2017-09-12T00:32:49.768Z,64.10
2017-09-12T00:35:18.923Z,64.10
2017-09-12T00:37:47.330Z,64.10
2017-09-12T00:40:16.493Z,64.20
2017-09-12T00:42:44.913Z,64.20
2017-09-12T00:45:13.749Z,63.80
2017-09-12T00:47:42.137Z,63.70
2017-09-12T00:50:10.545Z,64.60
2017-09-12T00:52:39.036Z,64.70
2017-09-12T00:55:08.698Z,64.70
2017-09-12T00:57:37.311Z,64.70
2017-09-12T01:00:06.859Z,64.80
2017-09-12T01:02:35.354Z,64.80
2017-09-12T01:05:03.217Z,65.40
2017-09-12T01:07:31.671Z,64.80
2017-09-12T01:10:00.063Z,64.80
2017-09-12T01:12:28.457Z,65.00
2017-09-12T01:14:56.516Z,65.70
2017-09-12T01:17:24.968Z,65.70
2017-09-12T01:19:53.784Z,65.90
2017-09-12T01:22:21.848Z,65.70
2017-09-12T01:24:49.556Z,65.30
2017-09-12T01:27:17.364Z,65.50
2017-09-12T01:29:45.261Z,65.30
2017-09-12T01:32:14.090Z,65.10
2017-09-12T01:34:43.970Z,65.20
2017-09-12T01:37:12.991Z,65.00
2017-09-12T01:39:42.179Z,65.00
2017-09-12T01:42:10.586Z,65.00
2017-09-12T01:44:39.767Z,64.40
2017-09-12T01:47:09.035Z,64.20
2017-09-12T01:49:37.652Z,64.20
2017-09-12T01:52:06.823Z,65.00
2017-09-12T01:54:35.236Z,65.00
2017-09-12T01:57:04.402Z,64.90
2017-09-12T01:59:32.804Z,64.90
2017-09-12T02:02:01.969Z,64.70
2017-09-12T02:04:30.361Z,64.70
2017-09-12T02:06:58.970Z,65.00
2017-09-12T02:09:27.948Z,64.80
2017-09-12T02:11:57.101Z,65.30
2017-09-12T02:14:25.615Z,65.20
2017-09-12T02:16:54.013Z,65.30
2017-09-12T02:19:23.697Z,66.00
2017-09-12T02:21:52.937Z,65.70
2017-09-12T02:24:22.019Z,65.80
2017-09-12T02:26:50.901Z,65.50
2017-09-12T02:29:19.411Z,66.30
2017-09-12T02:31:47.821Z,66.10
2017-09-12T02:34:16.221Z,66.20
2017-09-12T02:36:44.641Z,67.00
2017-09-12T02:39:13.041Z,68.80
2017-09-12T02:41:41.452Z,67.30
2017-09-12T02:44:09.961Z,66.90
2017-09-12T02:46:39.128Z,66.90
2017-09-12T02:49:07.526Z,66.80
2017-09-12T02:51:36.704Z,68.30
2017-09-12T02:54:05.874Z,66.80
2017-09-12T02:56:34.282Z,66.70
2017-09-12T02:59:03.132Z,70.50
2017-09-12T03:01:31.590Z,69.00
2017-09-12T03:04:00.064Z,67.90
2017-09-12T03:06:28.846Z,69.30
2017-09-12T03:08:57.553Z,68.50
2017-09-12T03:11:26.354Z,71.50
2017-09-12T03:13:54.773Z,72.60
2017-09-12T03:16:23.952Z,70.60
2017-09-12T03:18:52.348Z,70.10
2017-09-12T03:21:21.522Z,75.00
2017-09-12T03:23:49.959Z,74.40
2017-09-12T03:26:18.354Z,69.80
2017-09-12T03:28:46.780Z,70.90
2017-09-12T03:31:15.754Z,68.90
2017-09-12T03:33:44.910Z,71.60
2017-09-12T03:36:13.150Z,71.70
2017-09-12T03:38:42.316Z,70.30
2017-09-12T03:41:10.703Z,70.10
2017-09-12T03:43:39.630Z,70.20
2017-09-12T03:46:08.132Z,69.60
2017-09-12T03:48:37.331Z,70.60
2017-09-12T03:51:05.981Z,71.20
2017-09-12T03:53:37.121Z,73.50
2017-09-12T03:56:06.983Z,73.50
2017-09-12T03:58:36.974Z,72.90
2017-09-12T04:01:06.374Z,73.10
2017-09-12T04:03:35.718Z,74.10
2017-09-12T04:06:03.449Z,74.00
2017-09-12T04:08:31.142Z,75.30
2017-09-12T04:10:58.849Z,75.30
2017-09-12T04:13:27.257Z,74.60
2017-09-12T04:15:55.120Z,74.40
2017-09-12T04:18:22.851Z,75.30
2017-09-12T04:20:51.331Z,75.10
2017-09-12T04:23:19.829Z,77.00
2017-09-12T04:25:47.872Z,76.90
2017-09-12T04:28:16.896Z,74.40
2017-09-12T04:30:45.166Z,74.40
2017-09-12T04:33:14.362Z,73.00
2017-09-12T04:35:43.672Z,75.00
2017-09-12T04:38:13.006Z,72.00
2017-09-12T04:40:43.624Z,73.40
2017-09-12T04:43:12.538Z,73.50
2017-09-12T04:45:40.692Z,71.60
2017-09-12T04:48:09.374Z,72.10
2017-09-12T04:50:37.809Z,72.90
2017-09-12T04:53:05.868Z,71.30
2017-09-12T04:55:34.684Z,70.60
2017-09-12T04:58:03.102Z,71.30
2017-09-12T05:00:31.495Z,69.80
2017-09-12T05:02:59.898Z,69.90
2017-09-12T05:05:28.329Z,70.00
2017-09-12T05:07:56.757Z,69.60
2017-09-12T05:10:25.214Z,69.30
2017-09-12T05:12:54.398Z,67.70
2017-09-12T05:15:22.808Z,67.70
2017-09-12T05:17:51.529Z,67.90
2017-09-12T05:20:20.208Z,67.40
2017-09-12T05:22:48.767Z,67.90
2017-09-12T05:25:17.271Z,67.40
2017-09-12T05:27:45.719Z,68.10
2017-09-12T05:30:14.113Z,66.70
2017-09-12T05:32:42.509Z,66.90
2017-09-12T05:35:10.932Z,66.90
2017-09-12T05:37:39.916Z,66.70
2017-09-12T05:40:08.308Z,66.60
2017-09-12T05:42:37.476Z,66.20
2017-09-12T05:45:05.864Z,66.10
2017-09-12T05:47:34.283Z,66.50
2017-09-12T05:50:02.696Z,66.70
2017-09-12T05:52:31.096Z,66.00
2017-09-12T05:54:59.492Z,65.90
2017-09-12T05:57:28.096Z,66.70
2017-09-12T05:59:57.596Z,65.90
2017-09-12T06:02:27.020Z,65.80
2017-09-12T06:04:55.755Z,65.70
2017-09-12T06:07:24.224Z,65.90
2017-09-12T06:09:52.660Z,65.70
2017-09-12T06:12:21.088Z,66.30
2017-09-12T06:14:49.488Z,66.60
2017-09-12T06:17:18.126Z,66.50
2017-09-12T06:19:46.540Z,67.50
2017-09-12T06:22:14.919Z,66.40
2017-09-12T06:24:44.085Z,66.40
2017-09-12T06:27:12.497Z,66.30
2017-09-12T06:29:41.729Z,66.90
2017-09-12T06:32:10.115Z,66.90
2017-09-12T06:34:38.513Z,67.10
2017-09-12T06:37:06.908Z,67.80
2017-09-12T06:39:35.436Z,68.40
2017-09-12T06:42:04.777Z,69.00
2017-09-12T06:44:34.969Z,68.60
2017-09-12T06:47:04.309Z,69.40
2017-09-12T06:49:36.022Z,69.70
2017-09-12T06:52:05.608Z,71.10
2017-09-12T06:54:34.520Z,70.90
2017-09-12T06:57:03.430Z,71.50
2017-09-12T06:59:32.182Z,71.90
2017-09-12T07:02:00.803Z,71.80
2017-09-12T07:04:29.244Z,71.90
2017-09-12T07:06:57.629Z,73.70
2017-09-12T07:09:26.029Z,73.60
2017-09-12T07:11:54.453Z,72.50
2017-09-12T07:14:23.621Z,73.90
2017-09-12T07:16:52.053Z,73.20
2017-09-12T07:19:20.465Z,74.40
2017-09-12T07:21:48.875Z,74.70
2017-09-12T07:24:17.257Z,74.90
2017-09-12T07:26:47.173Z,74.40
2017-09-12T07:29:15.591Z,74.30
2017-09-12T07:31:44.101Z,74.90
2017-09-12T07:34:13.599Z,73.70
2017-09-12T07:36:42.760Z,75.30
2017-09-12T07:39:11.498Z,75.30
2017-09-12T07:41:41.373Z,75.30
2017-09-12T07:44:11.115Z,73.50
2017-09-12T07:46:40.797Z,74.10
2017-09-12T07:49:09.329Z,73.90
2017-09-12T07:51:37.724Z,74.20
2017-09-12T07:54:07.025Z,75.10
2017-09-12T07:56:36.189Z,74.10
2017-09-12T07:59:04.601Z,74.20
2017-09-12T08:01:33.761Z,74.80
2017-09-12T08:04:02.185Z,74.80
2017-09-12T08:06:30.579Z,74.00
2017-09-12T08:08:59.001Z,75.30
2017-09-12T08:11:28.404Z,75.10
2017-09-12T08:13:56.616Z,75.10
2017-09-12T08:16:25.080Z,75.50
2017-09-12T08:18:54.056Z,75.80
2017-09-12T08:21:22.444Z,75.70
2017-09-12T08:23:52.340Z,75.20
2017-09-12T08:26:20.849Z,75.20
2017-09-12T08:28:50.108Z,76.00
2017-09-12T08:31:18.550Z,75.80
2017-09-12T08:33:46.956Z,76.10
2017-09-12T08:36:15.352Z,77.50
2017-09-12T08:38:43.748Z,78.20
2017-09-12T08:41:12.927Z,80.20
2017-09-12T08:43:41.322Z,80.10
2017-09-12T08:46:10.499Z,81.20
2017-09-12T08:48:39.682Z,82.00
2017-09-12T08:51:08.094Z,82.00
2017-09-12T08:53:37.248Z,83.40
2017-09-12T08:56:05.647Z,83.30
2017-09-12T08:58:34.064Z,83.80
2017-09-12T09:01:02.547Z,83.70
2017-09-12T09:03:30.963Z,83.40
2017-09-12T09:05:59.349Z,82.90
2017-09-12T09:08:27.730Z,82.60
2017-09-12T09:10:55.971Z,82.60
2017-09-12T09:13:24.599Z,82.10
2017-09-12T09:15:53.000Z,81.20
2017-09-12T09:18:22.177Z,82.30
2017-09-12T09:20:50.569Z,82.20
2017-09-12T09:23:19.729Z,81.30
2017-09-12T09:25:48.380Z,81.30
2017-09-12T09:28:16.790Z,83.50
2017-09-12T09:30:45.182Z,81.40
2017-09-12T09:33:14.351Z,82.40
2017-09-12T09:35:42.748Z,81.70
2017-09-12T09:38:11.143Z,80.10
2017-09-12T09:40:39.544Z,79.70
2017-09-12T09:43:08.709Z,79.70
2017-09-12T09:45:37.104Z,79.70
2017-09-12T09:48:05.512Z,79.60
2017-09-12T09:50:33.912Z,78.20
2017-09-12T09:53:02.312Z,79.30
2017-09-12T09:55:30.729Z,77.40
2017-09-12T09:57:59.317Z,78.40
2017-09-12T10:00:28.471Z,77.60
2017-09-12T10:02:56.877Z,77.60
2017-09-12T10:05:26.039Z,76.30
2017-09-12T10:07:54.430Z,76.20
2017-09-12T10:10:22.843Z,77.30
2017-09-12T10:12:52.001Z,75.10
2017-09-12T10:15:20.395Z,75.10
2017-09-12T10:17:48.805Z,75.10
2017-09-12T10:20:17.199Z,75.20
2017-09-12T10:22:45.589Z,74.90
2017-09-12T10:25:14.017Z,74.80
2017-09-12T10:27:43.189Z,73.00
2017-09-12T10:30:11.681Z,73.00
2017-09-12T10:32:39.935Z,73.30
2017-09-12T10:35:08.211Z,71.40
2017-09-12T10:37:37.273Z,69.60
2017-09-12T10:40:05.539Z,69.60
2017-09-12T10:42:33.748Z,70.10
2017-09-12T10:45:01.952Z,69.40
2017-09-12T10:47:30.368Z,69.40
2017-09-12T10:49:58.764Z,69.90
2017-09-12T10:52:27.192Z,68.10
2017-09-12T10:54:56.366Z,68.90
2017-09-12T10:57:24.752Z,68.90
2017-09-12T10:59:53.143Z,69.00
2017-09-12T11:02:22.296Z,66.90
2017-09-12T11:04:51.710Z,67.40
2017-09-12T11:07:20.092Z,67.30
2017-09-12T11:09:48.499Z,66.70
2017-09-12T11:12:16.957Z,66.10
2017-09-12T11:14:45.649Z,66.50
2017-09-12T11:17:14.391Z,66.70
2017-09-12T11:19:42.757Z,64.90
2017-09-12T11:22:10.955Z,65.40
2017-09-12T11:24:39.344Z,67.00
2017-09-12T11:27:07.711Z,65.80
2017-09-12T11:29:36.071Z,66.90
2017-09-12T11:32:04.451Z,68.70
2017-09-12T11:34:32.895Z,72.60
2017-09-12T11:37:02.095Z,78.90
2017-09-12T11:39:31.080Z,79.60
2017-09-12T11:42:00.209Z,80.00
2017-09-12T11:44:28.393Z,80.00
2017-09-12T11:46:56.805Z,79.00
2017-09-12T11:49:25.213Z,78.00
2017-09-12T11:51:53.633Z,77.30
2017-09-12T11:54:23.799Z,77.40
2017-09-12T11:56:53.592Z,75.20
2017-09-12T11:59:22.893Z,75.20
2017-09-12T12:01:53.357Z,71.10
2017-09-12T12:04:24.822Z,71.00
2017-09-12T12:06:53.912Z,73.50
2017-09-12T12:09:22.736Z,73.40
2017-09-12T12:11:51.096Z,76.20
2017-09-12T12:14:19.472Z,78.20
2017-09-12T12:16:47.853Z,80.10
2017-09-12T12:19:16.236Z,78.90
2017-09-12T12:21:46.090Z,77.20
2017-09-12T12:24:15.241Z,79.80
2017-09-12T12:26:43.609Z,79.80
2017-09-12T12:29:11.991Z,80.20
2017-09-12T12:31:40.401Z,80.40
2017-09-12T12:34:08.763Z,80.50
2017-09-12T12:36:37.153Z,82.50
2017-09-12T12:39:05.954Z,86.00
2017-09-12T12:41:34.335Z,86.10
2017-09-12T12:44:04.063Z,83.60
2017-09-12T12:46:32.506Z,82.70
2017-09-12T12:51:31.555Z,87.40
2017-09-12T12:53:59.933Z,87.30
2017-09-12T12:56:28.319Z,89.90
2017-09-12T12:58:56.911Z,90.00
2017-09-12T13:01:25.359Z,90.90
2017-09-12T13:03:54.544Z,91.40
2017-09-12T13:06:22.917Z,91.30
2017-09-12T13:08:51.300Z,90.90
2017-09-12T13:11:19.671Z,90.30
2017-09-12T13:13:48.806Z,86.00
2017-09-12T13:16:17.256Z,86.00
2017-09-12T13:18:45.620Z,85.30
2017-09-12T13:21:14.020Z,84.60
2017-09-12T13:23:42.622Z,83.70
2017-09-12T13:26:10.853Z,82.80
2017-09-12T13:28:39.936Z,82.80
2017-09-12T13:31:09.216Z,83.80
2017-09-12T13:33:38.458Z,83.10
2017-09-12T13:36:07.830Z,84.20
2017-09-12T13:38:36.382Z,81.00
2017-09-12T13:41:04.806Z,82.60
2017-09-12T13:43:33.191Z,82.90
2017-09-12T13:46:01.572Z,80.60
2017-09-12T13:48:29.779Z,80.80
2017-09-12T13:50:58.141Z,79.90
2017-09-12T13:53:26.532Z,78.60
2017-09-12T13:55:54.915Z,77.10
2017-09-12T13:58:23.285Z,75.90
2017-09-12T14:00:51.333Z,75.50
2017-09-12T14:03:20.464Z,77.60
2017-09-12T14:05:48.840Z,77.50
2017-09-12T14:08:17.231Z,77.90
2017-09-12T14:10:45.682Z,77.50
2017-09-12T14:13:14.509Z,78.90
2017-09-12T14:15:43.226Z,79.80
2017-09-12T14:18:11.651Z,79.60
2017-09-12T14:20:40.054Z,75.70
2017-09-12T14:23:08.446Z,75.00
2017-09-12T14:25:36.815Z,72.70
2017-09-12T14:28:05.182Z,73.90
2017-09-12T14:30:33.595Z,73.00
2017-09-12T14:33:02.762Z,63.80
2017-09-12T14:35:32.328Z,63.80
2017-09-12T14:38:00.709Z,62.30
2017-09-12T14:40:29.073Z,58.20
2017-09-12T14:42:57.437Z,57.80
2017-09-12T14:45:25.825Z,61.80
2017-09-12T14:47:54.769Z,69.60
2017-09-12T14:50:23.186Z,69.60
2017-09-12T14:52:51.869Z,70.50
2017-09-12T14:55:21.099Z,72.80
2017-09-12T14:57:49.774Z,73.20
2017-09-12T15:00:18.181Z,73.80
2017-09-12T15:02:46.580Z,72.40
2017-09-12T15:05:14.961Z,71.90
2017-09-12T15:07:43.376Z,72.10
2017-09-12T15:10:12.503Z,68.40
2017-09-12T15:12:40.941Z,68.40
2017-09-12T15:15:10.089Z,56.50
2017-09-12T15:17:38.497Z,56.50
2017-09-12T15:20:08.063Z,54.70
2017-09-12T15:22:36.440Z,50.90
2017-09-12T15:25:04.827Z,51.70
2017-09-12T15:27:33.314Z,51.40
2017-09-12T15:30:01.701Z,52.50
2017-09-12T15:32:30.125Z,56.10
2017-09-12T15:34:59.029Z,61.20
2017-09-12T15:37:27.560Z,64.60
2017-09-12T15:39:56.252Z,64.60
2017-09-12T15:42:24.880Z,65.30
2017-09-12T15:44:54.036Z,66.40
2017-09-12T15:47:22.403Z,66.40
2017-09-12T15:49:50.771Z,67.70
2017-09-12T15:52:19.178Z,69.20
2017-09-12T15:54:48.315Z,69.00
2017-09-12T15:57:16.682Z,68.90
2017-09-12T15:59:45.079Z,69.00
2017-09-12T16:02:13.458Z,69.40
2017-09-12T16:04:41.829Z,69.10
2017-09-12T16:07:10.225Z,70.00
2017-09-12T16:09:38.636Z,70.90
2017-09-12T16:12:07.003Z,71.30
2017-09-12T16:14:35.757Z,70.50
2017-09-12T16:17:04.187Z,71.60
2017-09-12T16:19:33.337Z,73.90
2017-09-12T16:22:01.725Z,73.90
2017-09-12T16:24:30.111Z,74.80
2017-09-12T16:26:58.494Z,74.80
2017-09-12T16:29:26.883Z,73.90
2017-09-12T16:31:55.244Z,74.00
2017-09-12T16:34:23.618Z,73.00
2017-09-12T16:36:52.008Z,74.60
2017-09-12T16:39:20.386Z,73.90
2017-09-12T16:41:48.754Z,73.30
2017-09-12T16:44:17.172Z,73.40
2017-09-12T16:46:45.541Z,71.60
2017-09-12T16:49:14.482Z,72.40
2017-09-12T16:51:42.679Z,72.40
2017-09-12T16:54:11.808Z,72.00
2017-09-12T16:56:40.257Z,72.10
2017-09-12T16:59:10.041Z,72.10
2017-09-12T17:01:39.941Z,73.20
2017-09-12T17:04:09.072Z,73.10
2017-09-12T17:06:37.456Z,73.20
2017-09-12T17:09:05.484Z,74.00
2017-09-12T17:11:33.874Z,74.10
2017-09-12T17:14:02.289Z,75.20
2017-09-12T17:16:30.664Z,75.10
2017-09-12T17:18:59.807Z,75.80
2017-09-12T17:21:28.192Z,75.80
2017-09-12T17:23:56.655Z,76.70
2017-09-12T17:26:25.033Z,76.30
2017-09-12T17:28:53.425Z,76.70
2017-09-12T17:31:21.793Z,76.90
2017-09-12T17:33:50.183Z,76.60
2017-09-12T17:36:18.583Z,76.10
2017-09-12T17:38:47.482Z,75.80
2017-09-12T17:41:15.856Z,75.10
2017-09-12T17:43:44.272Z,74.20
2017-09-12T17:46:13.408Z,74.00
2017-09-12T17:48:41.596Z,74.00
2017-09-12T17:51:10.035Z,74.60
2017-09-12T17:53:38.629Z,73.90
2017-09-12T17:56:06.996Z,74.20
2017-09-12T17:58:35.398Z,74.10
2017-09-12T18:01:03.792Z,74.70
2017-09-12T18:03:32.178Z,74.00
2017-09-12T18:06:00.827Z,74.50
2017-09-12T18:08:29.237Z,74.20
2017-09-12T18:10:57.632Z,75.10
2017-09-12T18:13:26.013Z,74.50
2017-09-12T18:15:54.379Z,74.80
2017-09-12T18:18:22.743Z,75.50
2017-09-12T18:20:51.124Z,74.90
2017-09-12T18:23:21.007Z,74.80
2017-09-12T18:25:49.397Z,74.80
2017-09-12T18:28:17.881Z,74.10
2017-09-12T18:30:46.069Z,74.80
2017-09-12T18:33:14.451Z,74.80
2017-09-12T18:35:42.969Z,75.30
2017-09-12T18:38:11.920Z,76.30
2017-09-12T18:40:40.336Z,76.30
2017-09-12T18:43:09.518Z,76.90
2017-09-12T18:45:38.644Z,76.90
2017-09-12T18:48:07.033Z,76.80
2017-09-12T18:50:35.417Z,76.90
2017-09-12T18:53:03.788Z,77.00
2017-09-12T18:55:32.946Z,77.40
2017-09-12T18:58:02.117Z,77.30
2017-09-12T19:00:30.528Z,77.30
2017-09-12T19:03:00.673Z,77.40
2017-09-12T19:05:29.372Z,77.00
2017-09-12T19:07:57.825Z,77.00
2017-09-12T19:10:26.020Z,77.40
2017-09-12T19:12:54.430Z,77.20
2017-09-12T19:15:22.820Z,76.80
2017-09-12T19:17:57.013Z,77.00
2017-09-12T19:20:25.402Z,77.00
2017-09-12T19:22:53.764Z,75.80
2017-09-12T19:25:22.163Z,76.60
2017-09-12T19:27:50.571Z,76.90
2017-09-12T19:30:18.945Z,76.80
2017-09-12T19:32:47.340Z,77.30
2017-09-12T19:35:15.711Z,77.90
2017-09-12T19:37:44.160Z,78.50
2017-09-12T19:40:12.577Z,78.50
2017-09-12T19:42:41.138Z,79.10
2017-09-12T19:45:10.983Z,79.30
2017-09-12T19:47:39.437Z,79.30
2017-09-12T19:50:08.879Z,79.30
2017-09-12T19:52:37.816Z,79.20
2017-09-12T19:55:07.396Z,79.40
2017-09-12T19:57:37.018Z,79.30
2017-09-12T20:00:05.540Z,79.20
2017-09-12T20:02:33.941Z,79.50
2017-09-12T20:05:02.308Z,79.50
2017-09-12T20:07:30.685Z,79.60
2017-09-12T20:09:58.883Z,79.10
2017-09-12T20:12:27.282Z,79.30
2017-09-12T20:14:55.653Z,79.10
2017-09-12T20:17:24.063Z,78.90
2017-09-12T20:19:52.513Z,78.70
2017-09-12T20:22:20.894Z,78.50
2017-09-12T20:24:49.277Z,78.20
2017-09-12T20:27:18.709Z,77.50
2017-09-12T20:29:47.189Z,77.80
2017-09-12T20:32:15.989Z,77.40
2017-09-12T20:34:44.881Z,77.50
2017-09-12T20:37:15.449Z,77.20
2017-09-12T20:39:43.953Z,77.10
2017-09-12T20:42:12.292Z,77.10
2017-09-12T20:44:40.656Z,76.90
2017-09-12T20:47:09.055Z,76.80
2017-09-12T20:49:37.439Z,77.00
2017-09-12T20:52:05.822Z,77.80
2017-09-12T20:54:34.204Z,76.80
2017-09-12T20:57:02.567Z,76.50
2017-09-12T20:59:30.951Z,76.50
2017-09-12T21:01:59.352Z,76.70
2017-09-12T21:04:28.528Z,76.60
2017-09-12T21:06:57.006Z,76.50
2017-09-12T21:09:25.536Z,76.90
2017-09-12T21:11:54.129Z,77.60
2017-09-12T21:14:24.340Z,76.40
2017-09-12T21:16:53.980Z,76.20
2017-09-12T21:19:23.022Z,76.20
2017-09-12T21:21:52.466Z,76.10
2017-09-12T21:24:21.375Z,75.50
2017-09-12T21:26:49.400Z,75.30
2017-09-12T21:29:17.773Z,74.60
2017-09-12T21:31:46.166Z,74.30
2017-09-12T21:34:14.529Z,74.70
2017-09-12T21:36:42.915Z,74.60
2017-09-12T21:39:11.340Z,74.80
2017-09-12T21:41:39.709Z,75.00
2017-09-12T21:44:08.077Z,75.20
2017-09-12T21:46:36.449Z,75.80
2017-09-12T21:49:04.628Z,75.90
2017-09-12T21:51:32.800Z,75.60
2017-09-12T21:54:01.201Z,76.10
2017-09-12T21:56:31.124Z,76.10
2017-09-12T21:59:00.033Z,75.50
2017-09-12T22:01:28.536Z,76.10
2017-09-12T22:03:57.256Z,75.30
2017-09-12T22:06:25.654Z,75.90
2017-09-12T22:08:54.041Z,75.70
2017-09-12T22:11:23.180Z,76.60
2017-09-12T22:13:51.560Z,76.50
2017-09-12T22:16:19.936Z,76.80
2017-09-12T22:18:48.298Z,76.20
2017-09-12T22:21:16.686Z,76.40
2017-09-12T22:23:45.162Z,76.10
2017-09-12T22:26:13.532Z,75.90
2017-09-12T22:28:42.723Z,75.20
2017-09-12T22:31:11.106Z,74.90
2017-09-12T22:33:39.500Z,74.90
2017-09-12T22:36:07.926Z,74.60
2017-09-12T22:38:37.268Z,74.40
2017-09-12T22:41:05.831Z,74.40
2017-09-12T22:43:35.322Z,74.60
2017-09-12T22:46:04.517Z,74.50
2017-09-12T22:48:33.715Z,74.40
2017-09-12T22:51:02.872Z,74.00
2017-09-12T22:53:31.250Z,74.00
2017-09-12T22:55:59.629Z,74.80
2017-09-12T22:58:28.001Z,74.80
2017-09-12T23:00:56.099Z,74.90
2017-09-12T23:03:24.471Z,75.00
2017-09-12T23:05:52.867Z,74.80
2017-09-12T23:08:22.017Z,74.80
2017-09-12T23:10:50.381Z,74.60
2017-09-12T23:13:18.762Z,74.50
2017-09-12T23:15:47.137Z,74.90
2017-09-12T23:18:15.528Z,74.60
2017-09-12T23:20:43.933Z,74.80
2017-09-12T23:23:12.432Z,74.60
2017-09-12T23:25:42.469Z,75.80
2017-09-12T23:28:12.162Z,75.60
2017-09-12T23:30:41.187Z,76.20
2017-09-12T23:33:09.558Z,76.10
2017-09-12T23:35:37.926Z,75.80
2017-09-12T23:38:06.307Z,75.60
2017-09-12T23:40:34.674Z,75.90
2017-09-12T23:43:03.828Z,75.50
2017-09-12T23:45:32.220Z,75.50
2017-09-12T23:48:00.600Z,75.70
2017-09-12T23:50:28.975Z,75.60
2017-09-12T23:52:57.362Z,75.80
2017-09-12T23:55:25.740Z,76.20
2017-09-12T23:57:54.369Z,76.90
